createdAt,value
2019-05-19T00:01:04.551Z,15.80
2019-05-19T00:03:33.589Z,15.80
2019-05-19T00:06:02.365Z,15.80
2019-05-19T00:08:31.133Z,15.70
2019-05-19T00:11:00.246Z,15.70
2019-05-19T00:13:29.008Z,15.50
2019-05-19T00:15:57.801Z,15.40
2019-05-19T00:18:27.017Z,15.40
2019-05-19T00:20:55.797Z,15.40
2019-05-19T00:23:24.572Z,15.40
2019-05-19T00:25:53.352Z,15.50
2019-05-19T00:28:22.382Z,15.50
2019-05-19T00:30:51.163Z,15.40
2019-05-19T00:33:20.175Z,15.40
2019-05-19T00:35:48.955Z,15.40
2019-05-19T00:38:18.041Z,15.30
2019-05-19T00:40:47.142Z,15.30
2019-05-19T00:43:16.324Z,15.30
2019-05-19T00:45:45.304Z,15.20
2019-05-19T00:48:14.143Z,15.20
2019-05-19T00:50:43.318Z,15.10
2019-05-19T00:53:12.157Z,15.10
2019-05-19T00:55:41.010Z,15.10
2019-05-19T00:58:10.510Z,15.20
2019-05-19T01:00:39.447Z,15.20
2019-05-19T01:03:08.489Z,15.10
2019-05-19T01:05:37.620Z,15.10
2019-05-19T01:08:06.445Z,15.00
2019-05-19T01:10:35.565Z,15.00
2019-05-19T01:13:04.339Z,15.00
2019-05-19T01:15:33.125Z,15.00
2019-05-19T01:18:02.337Z,15.00
2019-05-19T01:20:31.266Z,14.90
2019-05-19T01:23:00.018Z,14.90
2019-05-19T01:25:28.799Z,14.80
2019-05-19T01:27:57.639Z,14.90
2019-05-19T01:30:27.621Z,14.80
2019-05-19T01:32:56.692Z,14.70
2019-05-19T01:35:25.480Z,14.70
2019-05-19T01:37:54.597Z,14.70
2019-05-19T01:40:23.377Z,14.70
2019-05-19T01:42:52.149Z,14.70
2019-05-19T01:45:21.375Z,14.70
2019-05-19T01:47:50.207Z,14.70
2019-05-19T01:50:19.539Z,14.60
2019-05-19T01:52:48.306Z,14.60
2019-05-19T01:55:17.648Z,14.70
2019-05-19T01:57:46.425Z,14.70
2019-05-19T02:00:15.476Z,14.70
2019-05-19T02:02:44.287Z,14.70
2019-05-19T02:05:13.961Z,14.70
2019-05-19T02:07:42.824Z,14.70
2019-05-19T02:10:12.043Z,14.70
2019-05-19T02:12:41.157Z,14.70
2019-05-19T02:15:10.628Z,14.80
2019-05-19T02:17:39.490Z,14.90
2019-05-19T02:20:09.421Z,14.90
2019-05-19T02:22:38.269Z,14.90
2019-05-19T02:25:07.471Z,14.90
2019-05-19T02:27:36.392Z,14.80
2019-05-19T02:30:05.584Z,14.80
2019-05-19T02:32:34.430Z,14.90
2019-05-19T02:35:03.619Z,14.90
2019-05-19T02:37:32.391Z,15.00
2019-05-19T02:40:01.591Z,15.00
2019-05-19T02:42:33.264Z,15.10
2019-05-19T02:45:04.042Z,15.10
2019-05-19T02:47:33.860Z,15.10
2019-05-19T02:50:03.795Z,15.00
2019-05-19T02:52:33.496Z,15.00
2019-05-19T02:55:02.983Z,14.90
2019-05-19T02:57:33.534Z,14.80
2019-05-19T03:00:02.567Z,14.80
2019-05-19T03:02:31.409Z,14.80
2019-05-19T03:05:00.247Z,14.70
2019-05-19T03:07:29.087Z,14.60
2019-05-19T03:09:57.925Z,14.60
2019-05-19T03:12:26.701Z,14.60
2019-05-19T03:14:55.477Z,14.50
2019-05-19T03:17:24.324Z,14.50
2019-05-19T03:19:53.100Z,14.40
2019-05-19T03:22:21.886Z,14.30
2019-05-19T03:24:51.230Z,14.20
2019-05-19T03:27:20.073Z,14.10
2019-05-19T03:29:53.961Z,14.10
2019-05-19T03:32:36.892Z,14.00
2019-05-19T03:35:05.809Z,13.90
2019-05-19T03:37:34.706Z,13.80
2019-05-19T03:40:05.956Z,13.70
2019-05-19T03:42:34.733Z,13.70
2019-05-19T03:45:03.607Z,13.70
2019-05-19T03:47:32.472Z,13.70
2019-05-19T03:50:01.232Z,13.80
2019-05-19T03:52:30.338Z,13.80
2019-05-19T03:54:59.101Z,13.90
2019-05-19T03:57:27.963Z,13.90
2019-05-19T03:59:56.833Z,13.90
2019-05-19T04:02:25.623Z,14.00
2019-05-19T04:04:54.658Z,13.90
2019-05-19T04:07:23.437Z,13.90
2019-05-19T04:09:52.425Z,13.90
2019-05-19T04:12:21.453Z,13.80
2019-05-19T04:14:50.225Z,13.80
2019-05-19T04:17:19.075Z,13.70
2019-05-19T04:19:48.264Z,13.70
2019-05-19T04:22:17.319Z,13.70
2019-05-19T04:24:46.404Z,13.80
2019-05-19T04:27:15.184Z,13.80
2019-05-19T04:29:44.211Z,13.90
2019-05-19T04:32:13.051Z,14.00
2019-05-19T04:34:41.851Z,14.00
2019-05-19T04:37:10.728Z,14.00
2019-05-19T04:39:39.572Z,14.00
2019-05-19T04:42:08.683Z,14.10
2019-05-19T04:44:37.479Z,14.10
2019-05-19T04:47:06.257Z,14.00
2019-05-19T04:49:35.725Z,14.00
2019-05-19T04:52:07.004Z,14.00
2019-05-19T04:54:35.527Z,14.00
2019-05-19T04:57:04.360Z,14.00
2019-05-19T04:59:33.136Z,14.10
2019-05-19T05:02:01.909Z,14.20
2019-05-19T05:04:31.009Z,14.20
2019-05-19T05:07:00.109Z,14.30
2019-05-19T05:09:28.889Z,14.30
2019-05-19T05:11:57.655Z,14.50
2019-05-19T05:14:26.781Z,14.50
2019-05-19T05:16:55.916Z,14.50
2019-05-19T05:19:24.699Z,14.50
2019-05-19T05:21:53.461Z,14.50
2019-05-19T05:24:22.323Z,14.50
2019-05-19T05:26:51.580Z,14.60
2019-05-19T05:29:20.392Z,14.80
2019-05-19T05:31:49.176Z,14.90
2019-05-19T05:34:18.022Z,15.00
2019-05-19T05:36:46.816Z,15.00
2019-05-19T05:39:15.683Z,15.10
2019-05-19T05:41:44.476Z,15.20
2019-05-19T05:44:13.296Z,15.30
2019-05-19T05:46:42.073Z,15.50
2019-05-19T05:49:10.864Z,15.70
2019-05-19T05:51:39.660Z,15.80
2019-05-19T05:54:08.460Z,15.90
2019-05-19T05:56:37.251Z,16.00
2019-05-19T05:59:06.080Z,16.10
2019-05-19T06:01:34.849Z,16.30
2019-05-19T06:04:03.694Z,16.30
2019-05-19T06:06:32.901Z,16.30
2019-05-19T06:09:01.685Z,16.30
2019-05-19T06:11:30.457Z,16.50
2019-05-19T06:13:59.653Z,16.60
2019-05-19T06:16:28.435Z,16.60
2019-05-19T06:18:57.231Z,16.60
2019-05-19T06:21:26.031Z,16.70
2019-05-19T06:23:54.822Z,16.90
2019-05-19T06:26:23.957Z,17.00
2019-05-19T06:28:52.752Z,17.10
2019-05-19T06:31:21.566Z,17.10
2019-05-19T06:33:50.729Z,17.20
2019-05-19T06:36:19.585Z,17.10
2019-05-19T06:38:48.461Z,17.20
2019-05-19T06:41:17.316Z,17.30
2019-05-19T06:43:46.121Z,17.40
2019-05-19T06:46:14.914Z,17.50
2019-05-19T06:48:43.713Z,17.70
2019-05-19T06:51:12.494Z,17.80
2019-05-19T06:53:41.428Z,17.90
2019-05-19T06:56:10.297Z,18.00
2019-05-19T06:58:39.341Z,18.00
2019-05-19T07:01:08.535Z,18.10
2019-05-19T07:03:37.321Z,18.00
2019-05-19T07:06:06.268Z,18.00
2019-05-19T07:08:35.058Z,18.30
2019-05-19T07:11:03.839Z,18.40
2019-05-19T07:13:32.685Z,18.50
2019-05-19T07:16:01.519Z,18.70
2019-05-19T07:18:30.366Z,18.70
2019-05-19T07:20:59.483Z,18.60
2019-05-19T07:23:29.012Z,18.60
2019-05-19T07:25:57.949Z,18.70
2019-05-19T07:28:27.174Z,19.00
2019-05-19T07:30:56.261Z,19.00
2019-05-19T07:33:25.112Z,18.90
2019-05-19T07:35:54.532Z,18.90
2019-05-19T07:38:23.415Z,19.10
2019-05-19T07:40:52.519Z,19.10
2019-05-19T07:43:21.327Z,19.20
2019-05-19T07:45:50.184Z,19.50
2019-05-19T07:48:18.975Z,19.60
2019-05-19T07:50:47.904Z,19.80
2019-05-19T07:53:16.987Z,19.80
2019-05-19T07:55:45.957Z,19.80
2019-05-19T07:58:14.807Z,19.90
2019-05-19T08:00:44.189Z,19.90
2019-05-19T08:03:13.014Z,20.10
2019-05-19T08:05:41.808Z,20.20
2019-05-19T08:08:10.585Z,20.20
2019-05-19T08:10:39.386Z,20.10
2019-05-19T08:13:08.221Z,20.20
2019-05-19T08:15:37.082Z,20.30
2019-05-19T08:18:05.943Z,20.30
2019-05-19T08:20:35.112Z,20.50
2019-05-19T08:23:04.011Z,20.60
2019-05-19T08:25:32.899Z,20.70
2019-05-19T08:28:08.324Z,20.90
2019-05-19T08:30:33.308Z,20.70
2019-05-19T08:33:02.366Z,20.60
2019-05-19T08:35:31.143Z,20.70
2019-05-19T08:37:59.910Z,20.90
2019-05-19T08:40:28.731Z,21.00
2019-05-19T08:42:57.590Z,21.20
2019-05-19T08:45:26.649Z,21.40
2019-05-19T08:47:55.425Z,21.40
2019-05-19T08:50:24.293Z,21.50
2019-05-19T08:52:53.085Z,21.50
2019-05-19T08:55:21.947Z,21.60
2019-05-19T08:57:50.994Z,21.70
2019-05-19T09:00:20.188Z,21.80
2019-05-19T09:02:49.053Z,21.90
2019-05-19T09:05:18.123Z,22.10
2019-05-19T09:07:46.972Z,22.10
2019-05-19T09:10:16.177Z,22.30
2019-05-19T09:12:45.099Z,22.40
2019-05-19T09:15:14.057Z,22.30
2019-05-19T09:17:43.140Z,22.40
2019-05-19T09:20:13.372Z,22.50
2019-05-19T09:22:42.569Z,22.30
2019-05-19T09:25:11.599Z,22.40
2019-05-19T09:27:41.063Z,22.70
2019-05-19T09:30:10.974Z,22.70
2019-05-19T09:32:40.071Z,22.50
2019-05-19T09:35:09.987Z,22.60
2019-05-19T09:37:39.076Z,22.80
2019-05-19T09:40:09.247Z,22.80
2019-05-19T09:42:38.445Z,22.70
2019-05-19T09:45:08.270Z,22.90
2019-05-19T09:47:37.614Z,22.90
2019-05-19T09:50:07.378Z,23.10
2019-05-19T09:52:36.202Z,23.10
2019-05-19T09:55:05.694Z,23.00
2019-05-19T09:57:34.649Z,23.10
2019-05-19T10:00:03.688Z,23.10
2019-05-19T10:02:32.741Z,23.10
2019-05-19T10:05:01.525Z,23.30
2019-05-19T10:07:30.308Z,23.40
2019-05-19T10:10:00.967Z,23.50
2019-05-19T10:12:30.673Z,23.50
2019-05-19T10:15:00.092Z,23.60
2019-05-19T10:17:29.091Z,23.70
2019-05-19T10:19:57.893Z,23.70
2019-05-19T10:22:26.934Z,23.60
2019-05-19T10:25:18.320Z,23.70
2019-05-19T10:27:26.846Z,23.90
2019-05-19T10:29:55.630Z,24.00
2019-05-19T10:32:24.448Z,24.20
2019-05-19T10:34:53.272Z,24.00
2019-05-19T10:37:22.156Z,23.80
2019-05-19T10:39:51.899Z,23.70
2019-05-19T10:42:20.798Z,23.80
2019-05-19T10:44:49.968Z,23.60
2019-05-19T10:47:18.775Z,23.60
2019-05-19T10:49:48.163Z,23.60
2019-05-19T10:52:16.956Z,23.80
2019-05-19T10:54:46.057Z,23.90
2019-05-19T10:57:14.866Z,24.10
2019-05-19T10:59:43.660Z,24.00
2019-05-19T11:02:12.546Z,24.00
2019-05-19T11:04:41.460Z,24.10
2019-05-19T11:07:10.247Z,24.00
2019-05-19T11:09:39.420Z,23.80
2019-05-19T11:12:08.588Z,23.50
2019-05-19T11:14:37.385Z,23.50
2019-05-19T11:17:06.260Z,23.60
2019-05-19T11:19:35.072Z,23.80
2019-05-19T11:22:03.929Z,23.90
2019-05-19T11:24:32.710Z,24.00
2019-05-19T11:27:01.836Z,24.10
2019-05-19T11:29:30.612Z,24.30
2019-05-19T11:31:59.395Z,24.70
2019-05-19T11:34:28.164Z,24.70
2019-05-19T11:36:56.951Z,24.50
2019-05-19T11:39:25.757Z,24.50
2019-05-19T11:41:54.557Z,24.60
2019-05-19T11:44:23.681Z,24.70
2019-05-19T11:46:52.472Z,24.70
2019-05-19T11:49:21.236Z,24.50
2019-05-19T11:51:50.437Z,24.60
2019-05-19T11:54:19.656Z,24.70
2019-05-19T11:56:48.737Z,24.90
2019-05-19T11:59:17.519Z,25.10
2019-05-19T12:01:46.615Z,25.20
2019-05-19T12:04:15.397Z,25.10
2019-05-19T12:06:44.175Z,25.20
2019-05-19T12:09:13.405Z,25.30
2019-05-19T12:11:42.188Z,25.30
2019-05-19T12:14:10.997Z,25.50
2019-05-19T12:16:40.091Z,25.70
2019-05-19T12:19:08.936Z,25.60
2019-05-19T12:21:38.136Z,25.50
2019-05-19T12:24:06.911Z,25.50
2019-05-19T12:26:36.041Z,25.30
2019-05-19T12:29:05.136Z,25.20
2019-05-19T12:31:33.929Z,25.30
2019-05-19T12:34:03.021Z,25.20
2019-05-19T12:36:31.862Z,25.50
2019-05-19T12:39:00.633Z,25.60
2019-05-19T12:41:29.681Z,25.60
2019-05-19T12:43:58.802Z,25.40
2019-05-19T12:46:27.580Z,25.40
2019-05-19T12:48:56.355Z,25.40
2019-05-19T12:51:26.897Z,25.50
2019-05-19T12:53:55.789Z,25.60
2019-05-19T12:56:38.630Z,25.30
2019-05-19T12:58:55.920Z,25.40
2019-05-19T13:01:25.022Z,25.30
2019-05-19T13:03:53.927Z,25.30
2019-05-19T13:06:23.401Z,25.40
2019-05-19T13:08:52.179Z,25.50
2019-05-19T13:11:21.065Z,25.40
2019-05-19T13:13:50.178Z,25.60
2019-05-19T13:16:19.376Z,25.50
2019-05-19T13:18:48.155Z,25.60
2019-05-19T13:21:17.244Z,25.60
2019-05-19T13:23:46.361Z,25.60
2019-05-19T13:26:15.473Z,25.70
2019-05-19T13:28:44.327Z,25.70
2019-05-19T13:31:13.176Z,25.70
2019-05-19T13:33:42.632Z,25.80
2019-05-19T13:36:11.511Z,25.70
2019-05-19T13:38:40.720Z,25.50
2019-05-19T13:41:09.493Z,25.50
2019-05-19T13:43:38.704Z,25.50
2019-05-19T13:46:08.061Z,25.50
2019-05-19T13:48:37.415Z,25.40
2019-05-19T13:51:06.196Z,25.50
2019-05-19T13:53:35.596Z,25.70
2019-05-19T13:56:04.536Z,25.60
2019-05-19T13:58:33.319Z,25.70
2019-05-19T14:01:02.115Z,25.80
2019-05-19T14:03:31.176Z,25.80
2019-05-19T14:05:59.956Z,25.70
2019-05-19T14:08:29.256Z,25.70
2019-05-19T14:10:58.108Z,25.80
2019-05-19T14:13:26.889Z,25.90
2019-05-19T14:15:55.677Z,26.00
2019-05-19T14:18:24.462Z,26.00
2019-05-19T14:20:53.602Z,25.90
2019-05-19T14:23:22.385Z,26.10
2019-05-19T14:25:51.431Z,26.20
2019-05-19T14:28:20.238Z,26.00
2019-05-19T14:30:49.670Z,26.10
2019-05-19T14:33:19.076Z,26.00
2019-05-19T14:35:48.136Z,26.00
2019-05-19T14:38:16.900Z,26.10
2019-05-19T14:40:45.683Z,26.30
2019-05-19T14:43:14.728Z,26.20
2019-05-19T14:45:43.848Z,26.20
2019-05-19T14:48:12.627Z,26.40
2019-05-19T14:50:41.407Z,26.50
2019-05-19T14:53:10.926Z,26.40
2019-05-19T14:55:39.719Z,26.40
2019-05-19T14:58:08.479Z,26.30
2019-05-19T15:00:37.285Z,26.10
2019-05-19T15:03:06.188Z,25.80
2019-05-19T15:05:35.025Z,25.60
2019-05-19T15:08:04.370Z,25.50
2019-05-19T15:10:33.143Z,25.40
2019-05-19T15:13:01.915Z,25.50
2019-05-19T15:15:30.797Z,25.40
2019-05-19T15:17:59.571Z,25.50
2019-05-19T15:20:28.628Z,25.50
2019-05-19T15:22:57.717Z,25.50
2019-05-19T15:25:26.597Z,25.40
2019-05-19T15:28:00.236Z,25.30
2019-05-19T15:30:26.834Z,25.40
2019-05-19T15:32:56.248Z,25.60
2019-05-19T15:35:25.038Z,25.80
2019-05-19T15:37:53.904Z,25.80
2019-05-19T15:40:23.012Z,25.60
2019-05-19T15:42:52.105Z,25.40
2019-05-19T15:45:20.975Z,25.60
2019-05-19T15:47:50.002Z,25.70
2019-05-19T15:50:19.615Z,25.90
2019-05-19T15:52:48.796Z,25.80
2019-05-19T15:55:17.588Z,25.70
2019-05-19T15:57:46.689Z,25.30
2019-05-19T16:00:16.661Z,25.30
2019-05-19T16:02:45.803Z,25.20
2019-05-19T16:05:15.638Z,25.20
2019-05-19T16:07:44.409Z,25.40
2019-05-19T16:10:14.044Z,25.30
2019-05-19T16:12:43.148Z,25.30
2019-05-19T16:15:12.378Z,25.30
2019-05-19T16:17:41.142Z,25.30
2019-05-19T16:20:10.412Z,25.30
2019-05-19T16:22:39.186Z,25.50
2019-05-19T16:25:09.088Z,25.40
2019-05-19T16:27:38.182Z,25.50
2019-05-19T16:30:09.236Z,25.30
2019-05-19T16:32:38.535Z,25.20
2019-05-19T16:35:07.815Z,25.20
2019-05-19T16:37:36.940Z,25.30
2019-05-19T16:40:06.172Z,25.00
2019-05-19T16:42:35.186Z,25.00
2019-05-19T16:45:05.816Z,24.90
2019-05-19T16:47:34.583Z,25.00
2019-05-19T16:50:03.840Z,24.80
2019-05-19T16:52:33.046Z,24.80
2019-05-19T16:55:23.724Z,24.70
2019-05-19T16:57:52.509Z,24.70
2019-05-19T17:00:22.205Z,24.60
2019-05-19T17:02:51.551Z,24.50
2019-05-19T17:05:20.472Z,24.60
2019-05-19T17:07:49.682Z,24.80
2019-05-19T17:10:18.910Z,24.90
2019-05-19T17:12:48.009Z,25.00
2019-05-19T17:15:17.308Z,24.90
2019-05-19T17:17:46.523Z,24.80
2019-05-19T17:20:18.238Z,24.80
2019-05-19T17:22:47.193Z,24.90
2019-05-19T17:25:16.396Z,25.00
2019-05-19T17:27:45.778Z,24.90
2019-05-19T17:30:15.347Z,25.00
2019-05-19T17:32:44.403Z,25.00
2019-05-19T17:35:13.737Z,24.90
2019-05-19T17:37:42.839Z,25.00
2019-05-19T17:40:13.346Z,25.00
2019-05-19T17:42:42.125Z,24.90
2019-05-19T17:45:11.721Z,24.90
2019-05-19T17:47:40.570Z,25.00
2019-05-19T17:50:12.632Z,25.10
2019-05-19T17:52:41.470Z,25.10
2019-05-19T17:55:10.816Z,25.10
2019-05-19T17:57:39.768Z,25.20
2019-05-19T18:00:10.206Z,25.30
2019-05-19T18:02:39.316Z,25.20
2019-05-19T18:05:08.244Z,25.20
2019-05-19T18:07:37.656Z,25.20
2019-05-19T18:10:07.376Z,25.20
2019-05-19T18:12:36.535Z,25.20
2019-05-19T18:15:06.084Z,25.20
2019-05-19T18:17:34.886Z,25.10
2019-05-19T18:20:04.178Z,25.00
2019-05-19T18:22:33.886Z,24.90
2019-05-19T18:25:02.754Z,24.80
2019-05-19T18:27:32.467Z,24.70
2019-05-19T18:30:01.520Z,24.60
2019-05-19T18:32:30.648Z,24.50
2019-05-19T18:34:59.430Z,24.30
2019-05-19T18:37:28.632Z,24.20
2019-05-19T18:39:57.444Z,24.10
2019-05-19T18:42:26.223Z,24.00
2019-05-19T18:44:55.280Z,23.80
2019-05-19T18:47:24.337Z,23.70
2019-05-19T18:49:53.464Z,23.60
2019-05-19T18:52:22.312Z,23.50
2019-05-19T18:54:51.205Z,23.40
2019-05-19T18:57:20.359Z,23.30
2019-05-19T18:59:49.540Z,23.10
2019-05-19T19:02:18.663Z,22.90
2019-05-19T19:04:47.739Z,22.90
2019-05-19T19:07:16.548Z,22.80
2019-05-19T19:09:45.745Z,22.70
2019-05-19T19:12:14.520Z,22.50
2019-05-19T19:14:43.617Z,22.40
2019-05-19T19:17:12.900Z,22.30
2019-05-19T19:19:41.697Z,22.20
2019-05-19T19:22:10.497Z,22.10
2019-05-19T19:24:39.300Z,22.00
2019-05-19T19:27:08.162Z,21.90
2019-05-19T19:29:36.932Z,21.80
2019-05-19T19:32:05.894Z,21.70
2019-05-19T19:34:34.746Z,21.70
2019-05-19T19:37:03.948Z,21.60
2019-05-19T19:39:33.322Z,21.50
2019-05-19T19:42:02.182Z,21.40
2019-05-19T19:44:30.963Z,21.30
2019-05-19T19:46:59.750Z,21.30
2019-05-19T19:49:29.205Z,21.30
2019-05-19T19:51:58.010Z,21.30
2019-05-19T19:54:26.800Z,21.20
2019-05-19T19:56:55.649Z,21.20
2019-05-19T19:59:24.428Z,21.10
2019-05-19T20:01:53.220Z,21.10
2019-05-19T20:04:22.336Z,21.10
2019-05-19T20:06:51.132Z,21.00
2019-05-19T20:09:21.389Z,20.90
2019-05-19T20:11:50.288Z,20.90
2019-05-19T20:14:19.071Z,20.80
2019-05-19T20:16:47.924Z,20.80
2019-05-19T20:19:16.727Z,20.70
2019-05-19T20:21:45.516Z,20.70
2019-05-19T20:24:14.302Z,20.70
2019-05-19T20:26:43.438Z,20.70
2019-05-19T20:29:12.681Z,20.70
2019-05-19T20:31:41.477Z,20.60
2019-05-19T20:34:10.304Z,20.40
2019-05-19T20:36:39.392Z,20.40
2019-05-19T20:39:08.405Z,20.30
2019-05-19T20:41:37.246Z,20.20
2019-05-19T20:44:06.087Z,20.10
2019-05-19T20:46:34.974Z,20.00
2019-05-19T20:49:03.915Z,20.00
2019-05-19T20:51:33.836Z,20.00
2019-05-19T20:54:02.705Z,19.90
2019-05-19T20:56:31.504Z,19.90
2019-05-19T20:59:00.573Z,19.90
2019-05-19T21:01:29.684Z,20.10
2019-05-19T21:03:58.488Z,20.00
2019-05-19T21:06:27.599Z,20.00
2019-05-19T21:08:56.769Z,20.00
2019-05-19T21:11:25.550Z,20.00
2019-05-19T21:13:54.758Z,20.00
2019-05-19T21:16:24.177Z,20.00
2019-05-19T21:18:53.074Z,20.00
2019-05-19T21:37:29.355Z,19.80
2019-05-19T21:39:58.132Z,19.90
2019-05-19T21:42:26.892Z,19.80
2019-05-19T21:44:55.755Z,19.80
2019-05-19T21:47:24.583Z,19.80
2019-05-19T21:49:53.412Z,19.80
2019-05-19T21:52:22.207Z,19.80
2019-05-19T21:54:51.344Z,19.80
2019-05-19T21:57:20.751Z,19.80
2019-05-19T21:59:49.844Z,19.80
2019-05-19T22:02:18.691Z,19.70
2019-05-19T22:04:47.474Z,19.70
2019-05-19T22:07:25.106Z,19.80
2019-05-19T22:09:53.971Z,19.80
2019-05-19T22:12:22.743Z,19.80
2019-05-19T22:14:51.520Z,19.70
2019-05-19T22:17:20.295Z,19.60
2019-05-19T22:19:49.564Z,19.70
2019-05-19T22:22:18.614Z,19.60
2019-05-19T22:24:47.756Z,19.70
2019-05-19T22:27:16.969Z,19.70
2019-05-19T22:29:45.756Z,19.60
2019-05-19T22:32:14.530Z,19.50
2019-05-19T22:34:43.632Z,19.50
2019-05-19T22:37:12.398Z,19.50
2019-05-19T22:39:41.455Z,19.50
2019-05-19T22:42:10.236Z,19.50
2019-05-19T22:44:39.422Z,19.40
2019-05-19T22:47:08.197Z,19.30
2019-05-19T22:49:37.332Z,19.20
2019-05-19T22:52:06.382Z,19.10
2019-05-19T22:54:35.503Z,19.10
2019-05-19T22:57:04.296Z,19.10
2019-05-19T22:59:33.087Z,19.10
2019-05-19T23:02:01.857Z,19.10
2019-05-19T23:04:31.278Z,18.90
2019-05-19T23:07:00.112Z,18.90
2019-05-19T23:09:31.748Z,18.90
2019-05-19T23:12:00.601Z,18.90
2019-05-19T23:14:29.420Z,18.90
2019-05-19T23:16:58.197Z,18.80
2019-05-19T23:19:27.067Z,18.90
2019-05-19T23:21:56.166Z,18.90
2019-05-19T23:24:24.945Z,18.90
2019-05-19T23:26:54.132Z,18.80
2019-05-19T23:29:22.919Z,18.70
2019-05-19T23:32:05.976Z,18.70
2019-05-19T23:34:22.255Z,18.80
2019-05-19T23:36:51.019Z,18.80
2019-05-19T23:39:19.797Z,18.70
2019-05-19T23:41:48.574Z,18.60
2019-05-19T23:44:17.421Z,18.50
2019-05-19T23:46:46.168Z,18.50
2019-05-19T23:49:15.012Z,18.60
2019-05-19T23:51:43.779Z,18.60
2019-05-19T23:54:12.556Z,18.50
2019-05-19T23:56:41.917Z,18.40
2019-05-19T23:59:10.703Z,18.40
